Time;durP1;ratioP1;P1;durP2;ratioP2;P2;SDS_P1;SDS_P2;PMS_P1;PMS_P2;Temp;Humidity;BMP_temperature;BMP_pressure;BME280_temperature;BME280_humidity;BME280_pressure;Samples;Min_cycle;Max_cycle;Signal;HPM_P1;HPM_P2
2021/06/21 00:01:21;;;;;;;6.93;2.70;;;15.60;99.90;;;;;;5065901;28;20205;-80
2021/06/21 00:03:49;;;;;;;5.33;2.23;;;15.60;99.90;;;;;;5079561;28;20200;-79
2021/06/21 00:06:16;;;;;;;5.00;2.30;;;15.60;99.90;;;;;;5086321;28;20228;-80
2021/06/21 00:08:43;;;;;;;4.37;2.40;;;15.70;99.90;;;;;;5086058;28;20201;-79
2021/06/21 00:11:10;;;;;;;5.47;2.43;;;15.60;99.90;;;;;;5066897;28;20232;-81
2021/06/21 00:13:38;;;;;;;6.63;2.40;;;15.60;99.90;;;;;;5066100;28;20202;-82
2021/06/21 00:16:06;;;;;;;4.07;2.17;;;15.60;99.90;;;;;;5065612;28;20204;-77
2021/06/21 00:18:33;;;;;;;4.53;2.27;;;15.70;99.90;;;;;;5065723;28;20208;-78
2021/06/21 00:21:00;;;;;;;4.20;2.27;;;15.60;99.90;;;;;;5079841;28;20258;-75
2021/06/21 00:23:27;;;;;;;5.40;2.23;;;15.60;99.90;;;;;;5084341;28;20201;-76
2021/06/21 00:25:54;;;;;;;4.50;2.40;;;15.60;99.90;;;;;;5084521;28;20232;-74
2021/06/21 00:28:21;;;;;;;3.03;2.07;;;15.50;99.90;;;;;;5083761;28;20205;-78
2021/06/21 00:30:49;;;;;;;2.70;1.90;;;15.60;99.90;;;;;;5080261;28;20209;-80
2021/06/21 00:33:16;;;;;;;3.87;1.90;;;15.60;99.90;;;;;;5085091;28;20204;-80
2021/06/21 00:35:43;;;;;;;3.73;2.00;;;15.60;99.90;;;;;;5086281;28;20204;-77
2021/06/21 00:38:10;;;;;;;2.70;1.77;;;15.60;99.90;;;;;;5083933;28;20224;-75
2021/06/21 00:40:38;;;;;;;2.23;1.80;;;15.60;99.90;;;;;;5085101;28;20208;-78
2021/06/21 00:43:06;;;;;;;3.20;2.10;;;15.60;99.90;;;;;;5067145;28;20203;-78
2021/06/21 00:45:34;;;;;;;3.57;2.03;;;15.60;99.90;;;;;;5064764;28;20244;-77
2021/06/21 00:48:02;;;;;;;4.83;1.90;;;15.60;99.90;;;;;;5064509;28;20205;-76
2021/06/21 00:50:31;;;;;;;2.77;1.80;;;15.60;99.90;;;;;;5077974;28;20561;-81
2021/06/21 00:53:00;;;;;;;3.80;2.40;;;15.60;99.90;;;;;;5084423;28;20631;-79
2021/06/21 00:55:29;;;;;;;4.17;2.00;;;15.60;99.90;;;;;;5084690;28;20365;-76
2021/06/21 00:57:56;;;;;;;3.60;2.00;;;15.60;99.90;;;;;;5085447;28;20201;-75
2021/06/21 01:00:25;;;;;;;6.00;2.27;;;15.60;99.90;;;;;;5067650;28;20205;-79
2021/06/21 01:02:53;;;;;;;2.13;1.90;;;15.60;99.90;;;;;;5063551;28;20212;-79
2021/06/21 01:05:26;;;;;;;5.20;2.23;;;15.60;99.90;;;;;;5064406;28;20229;-80
2021/06/21 01:07:53;;;;;;;4.23;2.33;;;15.60;99.90;;;;;;5068710;28;20209;-82
2021/06/21 01:10:23;;;;;;;3.53;2.43;;;15.60;99.90;;;;;;5085976;28;20592;-82
2021/06/21 01:13:04;;;;;;;4.87;2.47;;;15.60;99.90;;;;;;5085503;28;20228;-77
2021/06/21 01:15:36;;;;;;;2.63;2.30;;;15.60;99.90;;;;;;5087347;28;20271;-82
2021/06/21 01:18:09;;;;;;;2.73;2.43;;;15.60;99.90;;;;;;5086489;28;20200;-81
2021/06/21 01:21:21;;;;;;;2.93;2.53;;;15.60;99.90;;;;;;5086712;28;20632;-79
2021/06/21 01:24:19;;;;;;;4.20;2.60;;;15.60;99.90;;;;;;5042843;28;20680;-86
2021/06/21 01:26:51;;;;;;;3.77;2.43;;;15.60;99.90;;;;;;5044546;28;20233;-80
2021/06/21 01:29:37;;;;;;;3.77;2.73;;;15.60;99.90;;;;;;5067193;28;20197;-83
2021/06/21 01:32:10;;;;;;;4.60;2.77;;;15.50;99.90;;;;;;5066448;28;20552;-83
2021/06/21 01:34:41;;;;;;;8.67;3.30;;;15.50;99.90;;;;;;5066526;28;20255;-80
2021/06/21 01:37:09;;;;;;;8.20;3.07;;;15.50;99.90;;;;;;5065285;28;20204;-81
2021/06/21 01:39:36;;;;;;;5.03;2.80;;;15.50;99.90;;;;;;5066483;28;20212;-82
2021/06/21 01:42:06;;;;;;;5.47;3.07;;;15.50;99.90;;;;;;5071681;28;20603;-82
2021/06/21 01:44:37;;;;;;;6.37;3.33;;;15.50;99.90;;;;;;5085609;28;20212;-77
2021/06/21 01:47:05;;;;;;;7.37;3.27;;;15.50;99.90;;;;;;5086128;28;20224;-81
2021/06/21 01:49:44;;;;;;;5.17;3.13;;;15.50;99.90;;;;;;5085899;28;20224;-85
2021/06/21 01:52:13;;;;;;;7.77;3.07;;;15.40;99.90;;;;;;5085671;28;20469;-84
2021/06/21 01:54:45;;;;;;;4.93;3.07;;;15.40;99.90;;;;;;5085221;28;20208;-84
2021/06/21 01:57:12;;;;;;;6.03;3.30;;;15.40;99.90;;;;;;5085356;28;20227;-84
2021/06/21 01:59:41;;;;;;;8.33;3.83;;;15.40;99.90;;;;;;5085227;28;20550;-81
2021/06/21 02:02:09;;;;;;;4.97;3.33;;;15.40;99.90;;;;;;5069517;28;20292;-81
2021/06/21 02:04:37;;;;;;;4.83;3.10;;;15.50;99.90;;;;;;5064589;28;20194;-77
2021/06/21 02:07:07;;;;;;;6.40;3.33;;;15.50;99.90;;;;;;5079436;28;20324;-81
2021/06/21 02:09:34;;;;;;;5.67;3.20;;;15.40;99.90;;;;;;5085099;28;20197;-80
2021/06/21 02:12:02;;;;;;;10.20;4.18;;;15.40;99.90;;;;;;5088618;28;20228;-83
2021/06/21 02:14:30;;;;;;;7.47;3.70;;;15.40;99.90;;;;;;5086375;28;20616;-77
2021/06/21 02:16:59;;;;;;;4.30;2.90;;;15.40;99.90;;;;;;5068068;28;20189;-84
2021/06/21 02:19:29;;;;;;;6.07;3.60;;;15.40;99.90;;;;;;5068758;28;20259;-79
2021/06/21 02:21:57;;;;;;;5.87;3.47;;;15.30;99.90;;;;;;5068329;28;20242;-80
2021/06/21 02:24:26;;;;;;;6.85;3.70;;;15.40;99.90;;;;;;5067967;28;20216;-81
2021/06/21 02:26:54;;;;;;;8.60;3.58;;;15.30;99.90;;;;;;5083459;28;20613;-78
2021/06/21 02:29:23;;;;;;;5.30;3.47;;;15.30;99.90;;;;;;5086867;28;20204;-81
2021/06/21 02:31:51;;;;;;;6.67;3.60;;;15.30;99.90;;;;;;5085609;28;20212;-77
2021/06/21 02:34:18;;;;;;;6.23;3.30;;;15.30;99.90;;;;;;5086012;28;20422;-78
2021/06/21 02:36:45;;;;;;;8.43;3.37;;;15.30;99.90;;;;;;5075996;28;20205;-76
2021/06/21 02:39:12;;;;;;;4.40;3.07;;;15.30;99.90;;;;;;5066453;28;20205;-78
2021/06/21 02:41:40;;;;;;;5.53;3.30;;;15.20;99.90;;;;;;5066755;28;20247;-79
2021/06/21 02:44:08;;;;;;;5.20;3.60;;;15.20;99.90;;;;;;5065550;28;20197;-75
2021/06/21 02:46:35;;;;;;;4.30;3.27;;;15.20;99.90;;;;;;5069999;28;20228;-77
2021/06/21 02:49:02;;;;;;;7.93;2.77;;;15.20;99.90;;;;;;5086387;28;20212;-78
2021/06/21 02:51:34;;;;;;;4.83;2.60;;;15.10;99.90;;;;;;5085341;28;20212;-78
2021/06/21 02:54:06;;;;;;;8.00;2.60;;;15.10;99.90;;;;;;5086627;28;20204;-81
2021/06/21 02:56:38;;;;;;;3.20;2.60;;;15.10;99.90;;;;;;5085693;28;20664;-77
2021/06/21 02:59:10;;;;;;;4.40;2.47;;;15.00;99.90;;;;;;5085314;28;20208;-80
2021/06/21 03:01:54;;;;;;;6.77;3.37;;;15.00;99.90;;;;;;5087508;28;20200;-78
2021/06/21 03:04:22;;;;;;;3.17;2.40;;;14.90;99.90;;;;;;5085763;28;20916;-76
2021/06/21 03:06:51;;;;;;;4.83;2.90;;;14.90;99.90;;;;;;5075261;28;20235;-78
2021/06/21 03:09:20;;;;;;;3.47;2.50;;;14.80;99.90;;;;;;5065955;28;20216;-78
2021/06/21 03:11:51;;;;;;;5.07;2.77;;;14.90;99.90;;;;;;5065844;28;20229;-80
2021/06/21 03:14:23;;;;;;;4.30;2.57;;;14.90;99.90;;;;;;5065651;28;20193;-77
2021/06/21 03:16:51;;;;;;;7.97;2.90;;;14.90;99.90;;;;;;5065166;28;20201;-77
2021/06/21 03:19:19;;;;;;;5.83;3.50;;;14.80;99.90;;;;;;5074677;28;20204;-78
2021/06/21 03:21:46;;;;;;;6.07;2.50;;;14.80;99.90;;;;;;5084973;28;20216;-77
2021/06/21 03:24:15;;;;;;;5.53;2.70;;;14.80;99.90;;;;;;5070393;28;20205;-77
2021/06/21 03:26:43;;;;;;;4.33;2.73;;;14.80;99.90;;;;;;5065349;28;20233;-85
2021/06/21 03:29:14;;;;;;;4.47;2.60;;;14.70;99.90;;;;;;5066613;28;20896;-83
2021/06/21 03:31:43;;;;;;;4.30;2.63;;;14.60;99.90;;;;;;5065781;28;20194;-77
2021/06/21 03:34:11;;;;;;;4.43;3.00;;;14.60;99.90;;;;;;5065520;28;20197;-78
2021/06/21 03:36:38;;;;;;;5.30;2.63;;;14.60;99.90;;;;;;5066240;28;20224;-77
2021/06/21 03:39:05;;;;;;;4.83;2.53;;;14.60;99.90;;;;;;5066009;28;20197;-77
2021/06/21 03:41:32;;;;;;;3.83;2.30;;;14.60;99.90;;;;;;5065819;28;20205;-77
2021/06/21 03:43:59;;;;;;;8.33;2.90;;;14.50;99.90;;;;;;5067065;28;20190;-79
2021/06/21 03:46:25;;;;;;;4.73;2.90;;;14.50;99.90;;;;;;5085911;28;20231;-82
2021/06/21 03:48:54;;;;;;;6.40;2.60;;;14.50;99.90;;;;;;5084739;28;20212;-78
2021/06/21 03:51:21;;;;;;;5.60;3.17;;;14.40;99.90;;;;;;5085896;28;20664;-82
2021/06/21 03:53:48;;;;;;;7.43;2.80;;;14.30;99.90;;;;;;5086149;28;20262;-75
2021/06/21 03:56:15;;;;;;;7.83;3.10;;;14.40;99.90;;;;;;5084030;28;20200;-78
2021/06/21 03:58:42;;;;;;;4.83;2.70;;;14.30;99.90;;;;;;5066015;28;20235;-80
2021/06/21 04:01:09;;;;;;;5.20;2.80;;;14.30;99.90;;;;;;5067579;28;20205;-82
2021/06/21 04:03:37;;;;;;;5.33;2.90;;;14.30;99.90;;;;;;5085763;28;20204;-79
2021/06/21 04:06:05;;;;;;;4.93;2.90;;;14.40;99.90;;;;;;5085773;28;20235;-79
2021/06/21 04:08:33;;;;;;;7.37;3.73;;;14.40;99.90;;;;;;5085884;28;20790;-77
2021/06/21 04:11:00;;;;;;;5.47;2.97;;;14.30;99.90;;;;;;5086271;28;20232;-83
2021/06/21 04:13:29;;;;;;;7.80;3.03;;;14.30;99.90;;;;;;5085402;28;20251;-77
2021/06/21 04:15:56;;;;;;;7.57;3.63;;;14.30;99.90;;;;;;5085310;28;20196;-82
2021/06/21 04:18:24;;;;;;;8.03;3.53;;;14.30;99.90;;;;;;5086009;28;20200;-80
2021/06/21 04:20:51;;;;;;;7.87;3.63;;;14.30;99.90;;;;;;5086399;28;20193;-78
2021/06/21 04:23:19;;;;;;;10.00;3.83;;;14.30;99.90;;;;;;5085744;28;20212;-78
2021/06/21 04:25:46;;;;;;;6.73;3.77;;;14.40;99.90;;;;;;5086632;28;20207;-78
2021/06/21 04:28:14;;;;;;;10.47;3.93;;;14.40;99.90;;;;;;5085267;28;20236;-81
2021/06/21 04:30:44;;;;;;;5.00;3.17;;;14.40;99.90;;;;;;5070796;28;20219;-80
2021/06/21 04:33:11;;;;;;;9.23;3.90;;;14.40;99.90;;;;;;5067149;28;20219;-78
2021/06/21 04:35:38;;;;;;;6.10;3.47;;;14.40;99.90;;;;;;5085888;28;20205;-78
2021/06/21 04:38:04;;;;;;;6.17;3.30;;;14.40;99.90;;;;;;5085670;28;20203;-77
2021/06/21 04:40:35;;;;;;;7.80;3.80;;;14.40;99.90;;;;;;5085421;28;20204;-77
2021/06/21 04:43:03;;;;;;;6.60;3.27;;;14.40;99.90;;;;;;5084524;28;20504;-76
2021/06/21 04:45:29;;;;;;;6.17;3.87;;;14.40;99.90;;;;;;5085140;28;20196;-78
2021/06/21 04:47:56;;;;;;;7.20;3.67;;;14.40;99.90;;;;;;5084023;28;20636;-81
2021/06/21 04:50:23;;;;;;;5.60;3.33;;;14.40;99.90;;;;;;5084822;28;20207;-79
2021/06/21 04:52:51;;;;;;;8.87;4.10;;;14.40;99.90;;;;;;5084904;28;20635;-81
2021/06/21 04:55:20;;;;;;;6.77;3.23;;;14.40;99.90;;;;;;5084344;28;20211;-80
2021/06/21 04:57:48;;;;;;;4.80;3.63;;;14.40;99.90;;;;;;5066646;28;20205;-81
2021/06/21 05:00:17;;;;;;;8.47;3.30;;;14.40;99.90;;;;;;5064044;28;20209;-81
2021/06/21 05:02:44;;;;;;;9.67;4.60;;;14.30;99.90;;;;;;5077697;28;20215;-78
2021/06/21 05:05:11;;;;;;;12.53;3.77;;;14.40;99.90;;;;;;5082321;28;20872;-82
2021/06/21 05:07:40;;;;;;;6.57;3.87;;;14.40;99.90;;;;;;5064864;28;20530;-79
2021/06/21 05:10:09;;;;;;;5.53;3.80;;;14.30;99.90;;;;;;5074941;28;20204;-77
2021/06/21 05:12:36;;;;;;;9.07;3.97;;;14.30;99.90;;;;;;5076620;28;20224;-78
2021/06/21 05:15:06;;;;;;;8.87;3.67;;;14.30;99.90;;;;;;5080876;28;20201;-80
2021/06/21 05:17:32;;;;;;;6.83;3.83;;;14.30;99.90;;;;;;5065327;28;20244;-80
2021/06/21 05:19:59;;;;;;;13.17;4.60;;;14.30;99.90;;;;;;5078394;28;20208;-78
2021/06/21 05:22:27;;;;;;;7.23;3.70;;;14.30;99.90;;;;;;5085582;28;20204;-84
2021/06/21 05:24:55;;;;;;;8.67;3.93;;;14.30;99.90;;;;;;5085535;28;20200;-79
2021/06/21 05:27:22;;;;;;;9.07;4.57;;;14.20;99.90;;;;;;5084970;28;20350;-82
2021/06/21 05:29:48;;;;;;;7.43;3.87;;;14.20;99.90;;;;;;5086078;28;20223;-78
2021/06/21 05:32:16;;;;;;;11.27;3.83;;;14.20;99.90;;;;;;5085257;28;20204;-83
2021/06/21 05:34:44;;;;;;;11.57;4.00;;;14.20;99.90;;;;;;5085443;28;20207;-79
2021/06/21 05:37:11;;;;;;;6.00;3.47;;;14.20;99.90;;;;;;5085322;28;20208;-83
2021/06/21 05:39:37;;;;;;;6.87;3.60;;;14.20;99.90;;;;;;5086382;28;20240;-82
2021/06/21 05:42:06;;;;;;;7.33;4.77;;;14.30;99.90;;;;;;5085827;28;20201;-83
2021/06/21 05:44:33;;;;;;;12.57;5.23;;;14.20;99.90;;;;;;5085373;28;20954;-78
2021/06/21 05:47:00;;;;;;;13.10;4.13;;;14.20;99.90;;;;;;5084305;28;20615;-78
2021/06/21 05:49:29;;;;;;;6.97;3.50;;;14.10;99.90;;;;;;5065912;28;20609;-81
2021/06/21 05:51:56;;;;;;;9.00;4.00;;;14.10;99.90;;;;;;5065494;28;20817;-79
2021/06/21 05:54:23;;;;;;;8.43;3.93;;;14.20;99.90;;;;;;5065190;28;20197;-81
2021/06/21 05:56:49;;;;;;;8.20;3.93;;;14.20;99.90;;;;;;5065420;28;20748;-80
2021/06/21 05:59:22;;;;;;;10.27;3.70;;;14.20;99.90;;;;;;5065177;28;20598;-79
2021/06/21 06:01:50;;;;;;;5.83;3.90;;;14.20;99.90;;;;;;5064907;28;20197;-82
2021/06/21 06:04:17;;;;;;;7.43;3.80;;;14.20;99.90;;;;;;5082522;28;20205;-81
2021/06/21 06:06:45;;;;;;;7.33;3.40;;;14.20;99.90;;;;;;5084933;28;20635;-81
2021/06/21 06:09:12;;;;;;;6.70;4.27;;;14.20;99.90;;;;;;5085371;28;20216;-81
2021/06/21 06:11:38;;;;;;;6.03;4.00;;;14.20;99.90;;;;;;5071714;28;20248;-81
2021/06/21 06:14:05;;;;;;;8.43;4.07;;;14.20;99.90;;;;;;5076140;28;20224;-82
2021/06/21 06:16:32;;;;;;;7.90;4.37;;;14.20;99.90;;;;;;5086316;28;20246;-80
2021/06/21 06:19:01;;;;;;;8.53;4.20;;;14.20;99.90;;;;;;5088133;28;20193;-82
2021/06/21 06:21:30;;;;;;;9.00;4.70;;;14.30;99.90;;;;;;5087776;28;20209;-84
2021/06/21 06:23:58;;;;;;;9.50;4.43;;;14.30;99.90;;;;;;5087751;28;20196;-84
2021/06/21 06:26:26;;;;;;;6.37;4.47;;;14.30;99.90;;;;;;5088548;28;20208;-81
2021/06/21 06:28:55;;;;;;;10.47;4.67;;;14.30;99.90;;;;;;5087906;28;20216;-85
2021/06/21 06:31:22;;;;;;;10.10;5.57;;;14.30;99.90;;;;;;5088495;28;20204;-84
2021/06/21 06:33:49;;;;;;;11.60;5.03;;;14.30;99.90;;;;;;5088473;28;20569;-85
2021/06/21 06:36:16;;;;;;;8.17;4.37;;;14.30;99.90;;;;;;5088419;28;20208;-86
2021/06/21 06:38:43;;;;;;;6.33;4.50;;;14.40;99.90;;;;;;5090146;28;20510;-83
2021/06/21 06:41:11;;;;;;;6.73;4.20;;;14.40;99.90;;;;;;5088175;28;20261;-84
2021/06/21 06:43:38;;;;;;;8.20;5.03;;;14.40;99.90;;;;;;5088207;28;20274;-84
2021/06/21 06:46:06;;;;;;;9.03;4.80;;;14.50;99.90;;;;;;5077394;28;20607;-82
2021/06/21 06:48:34;;;;;;;8.33;4.70;;;14.50;99.90;;;;;;5065505;28;20204;-87
2021/06/21 06:51:01;;;;;;;9.73;4.67;;;14.50;99.90;;;;;;5086062;28;20224;-87
2021/06/21 06:53:37;;;;;;;8.70;4.80;;;14.40;99.90;;;;;;5085338;28;20193;-81
2021/06/21 06:58:50;;;;;;;8.47;4.80;;;14.50;99.90;;;;;;5079952;28;20204;-84
2021/06/21 07:01:17;;;;;;;7.80;4.70;;;14.50;99.90;;;;;;5091645;28;20620;-85
2021/06/21 07:03:43;;;;;;;10.20;4.50;;;14.50;99.90;;;;;;5084079;28;20733;-85
2021/06/21 07:06:13;;;;;;;9.77;5.30;;;14.50;99.90;;;;;;5091226;28;20227;-84
2021/06/21 07:08:39;;;;;;;7.40;3.87;;;14.50;99.90;;;;;;5090814;28;20278;-86
2021/06/21 07:11:07;;;;;;;7.30;3.60;;;14.50;99.90;;;;;;5082820;28;20217;-86
2021/06/21 07:13:34;;;;;;;6.70;3.97;;;14.50;99.90;;;;;;5072235;28;20268;-85
2021/06/21 07:16:02;;;;;;;5.97;3.40;;;14.60;99.90;;;;;;5090785;28;20798;-81
2021/06/21 07:18:30;;;;;;;6.73;3.60;;;14.60;99.90;;;;;;5082201;28;20205;-84
2021/06/21 07:20:57;;;;;;;7.87;4.23;;;14.60;99.90;;;;;;5091348;28;20208;-82
2021/06/21 07:23:24;;;;;;;8.70;3.47;;;14.60;99.90;;;;;;5090353;28;20205;-85
2021/06/21 07:25:51;;;;;;;5.77;3.10;;;14.70;99.90;;;;;;5091148;28;20584;-81
2021/06/21 07:28:17;;;;;;;6.37;3.30;;;14.70;99.90;;;;;;5091332;28;20221;-82
2021/06/21 07:30:44;;;;;;;5.70;3.13;;;14.70;99.90;;;;;;5088928;28;20484;-86
2021/06/21 07:33:13;;;;;;;6.67;3.83;;;14.60;99.90;;;;;;5089862;28;20208;-83
2021/06/21 07:35:40;;;;;;;6.37;3.33;;;14.70;99.90;;;;;;5084102;28;20236;-84
2021/06/21 07:38:07;;;;;;;4.53;2.83;;;14.70;99.90;;;;;;5069964;28;20505;-84
2021/06/21 07:40:36;;;;;;;3.77;3.10;;;14.80;99.90;;;;;;5070096;28;20502;-84
2021/06/21 07:43:03;;;;;;;5.23;3.57;;;14.70;99.90;;;;;;5087241;28;20697;-84
2021/06/21 07:45:29;;;;;;;7.63;3.80;;;14.70;99.90;;;;;;5087405;28;20216;-82
2021/06/21 07:47:58;;;;;;;8.17;3.67;;;14.70;99.90;;;;;;5089368;28;20223;-81
2021/06/21 07:50:27;;;;;;;6.93;4.10;;;14.80;99.90;;;;;;5087933;28;20211;-81
2021/06/21 07:52:54;;;;;;;6.43;3.30;;;14.80;99.90;;;;;;5088693;28;20219;-86
2021/06/21 07:55:24;;;;;;;9.57;3.57;;;14.80;99.90;;;;;;5088365;28;20209;-84
2021/06/21 07:57:51;;;;;;;8.20;3.83;;;14.80;99.90;;;;;;5089782;28;20254;-85
2021/06/21 08:00:20;;;;;;;8.63;3.30;;;14.80;99.90;;;;;;5090300;28;20612;-83
2021/06/21 08:02:47;;;;;;;8.40;4.40;;;14.80;99.90;;;;;;5090342;28;20614;-84
2021/06/21 08:05:24;;;;;;;4.77;3.10;;;14.90;99.90;;;;;;5090823;28;20262;-83
2021/06/21 08:07:52;;;;;;;6.20;4.10;;;14.80;99.90;;;;;;5089830;28;20672;-84
2021/06/21 08:10:20;;;;;;;8.77;3.43;;;14.80;99.90;;;;;;5090074;28;20204;-85
2021/06/21 08:12:50;;;;;;;6.43;3.67;;;14.80;99.90;;;;;;5089831;28;20315;-84
2021/06/21 08:15:17;;;;;;;5.30;2.87;;;14.80;99.90;;;;;;5079141;28;20209;-84
2021/06/21 08:17:44;;;;;;;7.20;3.63;;;14.80;99.90;;;;;;5088445;28;20891;-80
2021/06/21 08:20:13;;;;;;;4.70;3.20;;;14.80;99.90;;;;;;5089844;28;20204;-85
2021/06/21 08:22:41;;;;;;;7.90;3.10;;;14.80;99.90;;;;;;5078743;28;20203;-79
2021/06/21 08:25:11;;;;;;;7.23;2.90;;;14.70;99.90;;;;;;5088202;28;20207;-83
2021/06/21 08:27:39;;;;;;;5.87;2.63;;;14.60;99.90;;;;;;5069163;28;20225;-84
2021/06/21 08:30:08;;;;;;;4.90;2.70;;;14.60;99.90;;;;;;5068572;28;20193;-83
2021/06/21 08:32:34;;;;;;;8.77;2.73;;;14.60;99.90;;;;;;5077438;28;20208;-84
2021/06/21 08:35:01;;;;;;;7.00;3.93;;;14.60;99.90;;;;;;5089446;28;20204;-83
2021/06/21 08:37:28;;;;;;;5.07;2.87;;;14.60;99.90;;;;;;5090662;28;20200;-83
2021/06/21 08:39:55;;;;;;;7.63;2.40;;;14.60;99.90;;;;;;5090941;28;20200;-86
2021/06/21 08:42:24;;;;;;;4.13;1.83;;;14.70;99.90;;;;;;5089843;28;20204;-83
2021/06/21 08:44:53;;;;;;;3.63;2.30;;;14.60;99.90;;;;;;5090134;28;20204;-84
2021/06/21 08:47:22;;;;;;;6.87;2.43;;;14.60;99.90;;;;;;5090095;28;20222;-85
2021/06/21 08:49:50;;;;;;;5.83;2.20;;;14.60;99.90;;;;;;5084634;28;20197;-82
2021/06/21 08:52:20;;;;;;;7.67;2.17;;;14.60;99.90;;;;;;5082079;28;20625;-86
2021/06/21 08:54:47;;;;;;;11.83;4.27;;;14.60;99.90;;;;;;5091130;28;20193;-83
2021/06/21 08:57:15;;;;;;;8.33;2.90;;;14.60;99.90;;;;;;5090663;28;20208;-83
2021/06/21 08:59:43;;;;;;;4.87;2.33;;;14.60;99.90;;;;;;5096115;28;20196;-83
2021/06/21 09:02:14;;;;;;;5.27;2.20;;;14.60;99.90;;;;;;5095334;28;20207;-83
2021/06/21 09:04:41;;;;;;;4.63;2.00;;;14.60;99.90;;;;;;5094119;28;20207;-82
2021/06/21 09:07:19;;;;;;;4.23;2.20;;;14.60;99.90;;;;;;5094184;28;20201;-84
2021/06/21 09:09:47;;;;;;;4.60;2.10;;;14.50;99.90;;;;;;5092642;28;20304;-84
2021/06/21 09:12:19;;;;;;;5.03;2.30;;;14.50;99.90;;;;;;5074340;28;20245;-83
2021/06/21 09:14:48;;;;;;;3.27;2.20;;;14.60;99.90;;;;;;5081814;28;20200;-82
2021/06/21 09:17:19;;;;;;;5.83;2.53;;;14.50;99.90;;;;;;5096171;28;20196;-84
2021/06/21 09:19:51;;;;;;;5.90;2.23;;;14.60;99.90;;;;;;5094929;28;20189;-84
2021/06/21 09:22:32;;;;;;;5.07;2.23;;;14.60;99.90;;;;;;5077015;28;20215;-86
2021/06/21 09:25:01;;;;;;;5.30;2.10;;;14.60;99.90;;;;;;5083654;28;20596;-87
2021/06/21 09:27:28;;;;;;;3.77;2.20;;;14.60;99.90;;;;;;5096158;28;20220;-87
2021/06/21 09:29:56;;;;;;;8.37;2.73;;;14.60;99.90;;;;;;5095794;28;20200;-84
2021/06/21 09:32:40;;;;;;;4.00;2.23;;;14.60;99.90;;;;;;5095196;28;20290;-85
2021/06/21 09:35:10;;;;;;;4.27;2.40;;;14.60;99.90;;;;;;5096157;28;20235;-86
2021/06/21 09:37:46;;;;;;;6.47;3.70;;;14.60;99.90;;;;;;5095565;28;20258;-86
2021/06/21 09:40:26;;;;;;;5.83;2.40;;;14.60;99.90;;;;;;5095220;28;20627;-84
2021/06/21 09:43:00;;;;;;;5.77;2.30;;;14.60;99.90;;;;;;5095918;28;20242;-85
2021/06/21 09:45:30;;;;;;;8.63;3.17;;;14.60;99.90;;;;;;5109052;28;20499;-84
2021/06/21 09:47:57;;;;;;;5.10;2.40;;;14.70;99.90;;;;;;5116405;28;20218;-86
2021/06/21 09:50:26;;;;;;;7.57;3.47;;;14.70;99.90;;;;;;5116233;28;20204;-85
2021/06/21 09:52:56;;;;;;;8.23;3.17;;;14.70;99.90;;;;;;5116213;28;20533;-87
2021/06/21 09:55:30;;;;;;;9.87;3.57;;;14.70;99.90;;;;;;5100378;28;20249;-83
2021/06/21 09:58:12;;;;;;;5.70;2.43;;;14.70;99.90;;;;;;5095692;28;20193;-86
2021/06/21 10:00:43;;;;;;;7.33;2.60;;;14.70;99.90;;;;;;5095620;28;20596;-85
2021/06/21 10:03:16;;;;;;;6.40;3.10;;;14.80;99.90;;;;;;5095629;28;20204;-85
2021/06/21 10:05:47;;;;;;;6.97;2.73;;;14.80;99.90;;;;;;5095462;28;20200;-84
2021/06/21 10:08:16;;;;;;;4.50;2.30;;;14.80;99.90;;;;;;5095630;28;20269;-87
2021/06/21 10:10:44;;;;;;;8.70;3.17;;;14.80;99.90;;;;;;5094678;28;20235;-87
2021/06/21 10:13:13;;;;;;;7.17;2.87;;;14.80;99.90;;;;;;5095236;28;20240;-84
2021/06/21 10:15:41;;;;;;;7.77;2.67;;;14.80;99.90;;;;;;5095567;28;20293;-86
2021/06/21 10:18:08;;;;;;;4.80;2.30;;;14.90;99.90;;;;;;5095202;28;20200;-87
2021/06/21 10:20:36;;;;;;;4.30;1.97;;;14.90;99.90;;;;;;5095627;28;20189;-86
2021/06/21 10:23:05;;;;;;;6.17;1.90;;;14.90;99.90;;;;;;5094843;28;20278;-86
2021/06/21 10:25:33;;;;;;;5.53;2.50;;;14.90;99.90;;;;;;5095302;28;20589;-87
2021/06/21 10:28:02;;;;;;;5.47;2.00;;;14.90;99.90;;;;;;5094862;28;20201;-83
2021/06/21 10:30:30;;;;;;;4.70;1.97;;;14.90;99.90;;;;;;5095121;28;20595;-88
2021/06/21 10:32:59;;;;;;;5.33;2.57;;;14.80;99.90;;;;;;5092366;28;20223;-87
2021/06/21 10:35:31;;;;;;;6.33;2.70;;;14.80;99.90;;;;;;5088008;28;20209;-87
2021/06/21 10:38:04;;;;;;;4.23;2.33;;;14.80;99.90;;;;;;5079156;28;20198;-87
2021/06/21 10:40:31;;;;;;;5.43;1.97;;;14.80;99.90;;;;;;5078995;28;20279;-86
2021/06/21 10:42:58;;;;;;;3.67;1.83;;;14.90;99.90;;;;;;5078488;28;20205;-87
2021/06/21 10:45:27;;;;;;;5.60;2.50;;;14.90;99.90;;;;;;5093647;28;20501;-87
2021/06/21 10:48:10;;;;;;;5.80;2.73;;;14.90;99.90;;;;;;5098891;28;20204;-86
2021/06/21 10:50:51;;;;;;;5.83;2.63;;;14.90;99.90;;;;;;5099033;28;20479;-85
2021/06/21 10:53:18;;;;;;;6.10;2.50;;;15.00;99.90;;;;;;5098475;28;20207;-85
2021/06/21 10:55:50;;;;;;;5.30;2.37;;;14.90;99.90;;;;;;5098701;28;20189;-86
2021/06/21 10:58:44;;;;;;;7.47;2.70;;;15.00;99.90;;;;;;5098960;28;20211;-83
2021/06/21 11:01:16;;;;;;;6.83;2.83;;;15.00;99.90;;;;;;5098377;28;20189;-85
2021/06/21 11:03:44;;;;;;;8.93;2.63;;;15.00;99.90;;;;;;5098041;28;20211;-86
2021/06/21 11:06:34;;;;;;;7.00;2.60;;;15.00;99.90;;;;;;5097797;28;20201;-86
2021/06/21 11:09:01;;;;;;;6.47;3.30;;;15.00;99.90;;;;;;5098081;28;20217;-85
2021/06/21 11:11:44;;;;;;;4.40;2.60;;;15.00;99.90;;;;;;5097824;28;20216;-86
2021/06/21 11:14:14;;;;;;;7.60;3.40;;;14.90;99.90;;;;;;5098045;28;20225;-86
2021/06/21 11:16:42;;;;;;;6.17;2.43;;;15.00;99.90;;;;;;5097723;28;20584;-84
2021/06/21 11:19:35;;;;;;;4.83;2.33;;;15.00;99.90;;;;;;5098119;28;20197;-84
2021/06/21 11:22:07;;;;;;;8.23;3.20;;;15.10;99.90;;;;;;5077825;28;20469;-83
2021/06/21 11:24:49;;;;;;;5.33;2.53;;;15.20;99.90;;;;;;5076896;28;20205;-82
2021/06/21 11:27:17;;;;;;;4.40;2.40;;;15.20;99.90;;;;;;5077788;28;20589;-82
2021/06/21 11:29:45;;;;;;;8.03;2.63;;;15.30;99.90;;;;;;5077493;28;20226;-83
2021/06/21 11:32:13;;;;;;;9.27;2.30;;;15.40;99.90;;;;;;5076987;28;20200;-82
2021/06/21 11:34:53;;;;;;;5.77;2.80;;;15.30;99.90;;;;;;5077774;28;20190;-84
2021/06/21 11:37:35;;;;;;;4.33;2.40;;;15.30;99.90;;;;;;5094054;28;20220;-86
2021/06/21 11:40:26;;;;;;;6.33;2.43;;;15.30;99.90;;;;;;5096905;28;20481;-86
2021/06/21 11:43:12;;;;;;;7.50;3.40;;;15.30;99.90;;;;;;5077128;28;20284;-86
2021/06/21 11:45:54;;;;;;;6.03;2.60;;;15.40;99.90;;;;;;5087872;28;20204;-86
2021/06/21 11:48:31;;;;;;;7.90;2.87;;;15.50;99.90;;;;;;5097506;28;20204;-83
2021/06/21 11:51:01;;;;;;;6.03;2.40;;;15.40;99.90;;;;;;5096868;28;20204;-85
2021/06/21 11:53:30;;;;;;;6.97;2.63;;;15.40;99.90;;;;;;5096690;28;20279;-84
2021/06/21 11:55:57;;;;;;;6.33;2.57;;;15.40;99.90;;;;;;5097200;28;20592;-80
2021/06/21 11:58:28;;;;;;;5.23;2.70;;;15.40;99.90;;;;;;5096759;28;20286;-83
2021/06/21 12:00:55;;;;;;;8.63;3.40;;;15.40;99.90;;;;;;5085472;28;20212;-81
2021/06/21 12:03:30;;;;;;;7.83;3.50;;;15.50;99.90;;;;;;5076603;28;20201;-83
2021/06/21 12:05:57;;;;;;;5.43;2.93;;;15.50;99.90;;;;;;5093927;28;20283;-82
2021/06/21 12:08:26;;;;;;;5.90;2.70;;;15.50;99.90;;;;;;5096763;28;20200;-83
2021/06/21 12:10:53;;;;;;;8.67;3.70;;;15.60;99.90;;;;;;5096693;28;20221;-83
2021/06/21 12:13:21;;;;;;;8.83;3.07;;;15.60;99.90;;;;;;5096376;28;20256;-82
2021/06/21 12:15:49;;;;;;;6.13;3.67;;;15.60;99.90;;;;;;5096251;28;20204;-83
2021/06/21 12:18:25;;;;;;;6.53;2.87;;;15.60;99.90;;;;;;5096550;28;20215;-82
2021/06/21 12:20:52;;;;;;;8.97;2.97;;;15.50;99.90;;;;;;5096085;28;20200;-83
2021/06/21 12:23:19;;;;;;;5.33;3.13;;;15.50;99.90;;;;;;5096745;28;20207;-82
2021/06/21 12:25:48;;;;;;;7.50;2.63;;;15.50;99.90;;;;;;5096136;28;20228;-84
2021/06/21 12:28:17;;;;;;;10.18;3.33;;;15.50;99.90;;;;;;5095914;28;20562;-82
2021/06/21 12:30:46;;;;;;;7.33;2.93;;;15.50;99.90;;;;;;5088762;28;20502;-81
2021/06/21 12:33:31;;;;;;;7.63;3.50;;;15.40;99.90;;;;;;5076095;28;20193;-82
2021/06/21 12:36:10;;;;;;;9.70;3.37;;;15.30;99.90;;;;;;5076006;28;20535;-82
2021/06/21 12:38:39;;;;;;;10.23;3.27;;;15.40;99.90;;;;;;5068621;28;20193;-82
2021/06/21 12:41:16;;;;;;;7.73;3.50;;;15.40;99.90;;;;;;5076817;28;20220;-81
2021/06/21 12:43:53;;;;;;;8.53;2.97;;;15.40;99.90;;;;;;5076456;28;20211;-83
2021/06/21 12:46:22;;;;;;;11.10;3.87;;;15.40;99.90;;;;;;5076314;28;20193;-83
2021/06/21 12:48:50;;;;;;;7.57;2.97;;;15.40;99.90;;;;;;5078533;28;20278;-83
2021/06/21 12:51:18;;;;;;;5.70;3.30;;;15.50;99.90;;;;;;5096346;28;20193;-82
2021/06/21 12:53:46;;;;;;;7.67;3.10;;;15.40;99.90;;;;;;5096052;28;20212;-82
2021/06/21 12:56:27;;;;;;;8.43;3.10;;;15.40;99.90;;;;;;5095737;28;20203;-82
2021/06/21 12:58:55;;;;;;;7.63;2.97;;;15.40;99.90;;;;;;5078874;28;20252;-82
2021/06/21 13:01:28;;;;;;;5.33;2.70;;;15.30;99.90;;;;;;5075455;28;20205;-82